createdAt,value
2023-04-30T00:01:26.621Z,24.38
2023-04-30T00:03:53.313Z,23.90
2023-04-30T00:06:20.084Z,20.83
2023-04-30T00:08:46.696Z,23.98
2023-04-30T00:11:13.279Z,17.85
2023-04-30T00:13:39.922Z,19.23
2023-04-30T00:16:06.714Z,20.08
2023-04-30T00:18:33.349Z,20.17
2023-04-30T00:20:59.934Z,18.80
2023-04-30T00:23:26.475Z,19.33
2023-04-30T00:25:53.060Z,19.90
2023-04-30T00:28:19.696Z,17.38
2023-04-30T00:30:46.666Z,18.58
2023-04-30T00:33:13.388Z,18.48
2023-04-30T00:35:40.063Z,22.17
2023-04-30T00:38:06.781Z,20.05
2023-04-30T00:40:37.780Z,18.80
2023-04-30T00:43:04.491Z,21.75
2023-04-30T00:45:31.359Z,15.93
2023-04-30T00:47:58.132Z,18.90
2023-04-30T00:50:25.192Z,19.13
2023-04-30T00:52:52.081Z,17.60
2023-04-30T00:55:18.908Z,19.15
2023-04-30T00:57:49.533Z,16.35
2023-04-30T01:00:16.344Z,18.33
2023-04-30T01:02:44.215Z,20.65
2023-04-30T01:05:13.521Z,17.88
2023-04-30T01:07:45.248Z,18.30
2023-04-30T01:10:14.385Z,17.40
2023-04-30T01:12:47.035Z,18.95
2023-04-30T01:15:25.716Z,18.65
2023-04-30T01:18:07.907Z,19.63
2023-04-30T01:20:37.673Z,19.05
2023-04-30T01:23:41.104Z,19.35
2023-04-30T01:26:35.756Z,20.05
2023-04-30T01:29:04.533Z,20.13
2023-04-30T01:31:31.459Z,21.80
2023-04-30T01:33:58.128Z,18.58
2023-04-30T01:37:02.021Z,19.17
2023-04-30T01:39:37.233Z,20.40
2023-04-30T01:42:32.579Z,21.27
2023-04-30T01:45:15.800Z,19.10
2023-04-30T01:47:45.235Z,20.02
2023-04-30T01:50:28.667Z,17.27
2023-04-30T01:52:59.787Z,13.93
2023-04-30T01:55:43.572Z,11.90
2023-04-30T01:58:13.609Z,12.75
2023-04-30T02:00:40.182Z,12.48
2023-04-30T02:03:07.538Z,12.38
2023-04-30T02:05:34.330Z,14.75
2023-04-30T02:08:00.961Z,11.73
2023-04-30T02:10:29.543Z,10.45
2023-04-30T02:12:56.160Z,12.13
2023-04-30T02:15:22.850Z,10.90
2023-04-30T02:17:49.607Z,10.10
2023-04-30T02:20:16.272Z,11.75
2023-04-30T02:22:43.083Z,10.15
2023-04-30T02:25:11.452Z,12.00
2023-04-30T02:27:38.182Z,11.48
2023-04-30T02:30:05.391Z,12.43
2023-04-30T02:32:32.095Z,11.70
2023-04-30T02:34:58.754Z,11.95
2023-04-30T02:37:25.581Z,12.80
2023-04-30T02:39:53.079Z,10.63
2023-04-30T02:42:19.829Z,11.57
2023-04-30T02:44:48.657Z,11.88
2023-04-30T02:47:15.299Z,15.00
2023-04-30T02:49:41.909Z,11.80
2023-04-30T02:52:10.132Z,13.05
2023-04-30T02:54:37.012Z,12.73
2023-04-30T02:57:03.872Z,13.13
2023-04-30T02:59:30.743Z,15.20
2023-04-30T03:01:57.421Z,11.35
2023-04-30T03:04:24.089Z,12.93
2023-04-30T03:06:50.889Z,13.90
2023-04-30T03:09:18.122Z,12.77
2023-04-30T03:11:44.755Z,14.23
2023-04-30T03:14:11.433Z,12.30
2023-04-30T03:16:38.233Z,13.38
2023-04-30T03:19:04.998Z,13.38
2023-04-30T03:21:31.607Z,14.35
2023-04-30T03:23:58.217Z,16.60
2023-04-30T03:26:24.989Z,14.65
2023-04-30T03:28:55.870Z,15.48
2023-04-30T03:31:22.712Z,13.65
2023-04-30T03:33:49.450Z,14.93
2023-04-30T03:36:16.166Z,16.77
2023-04-30T03:38:43.042Z,14.57
2023-04-30T03:41:09.766Z,15.07
2023-04-30T03:43:37.552Z,14.65
2023-04-30T03:46:06.930Z,13.35
2023-04-30T03:48:33.597Z,12.98
2023-04-30T03:51:00.299Z,12.07
2023-04-30T03:53:27.402Z,11.90
2023-04-30T03:55:54.961Z,12.27
2023-04-30T03:58:22.530Z,14.50
2023-04-30T04:00:49.751Z,14.35
2023-04-30T04:03:16.967Z,13.80
2023-04-30T04:05:43.774Z,14.20
2023-04-30T04:08:10.670Z,14.00
2023-04-30T04:10:37.487Z,14.40
2023-04-30T04:13:04.257Z,13.27
2023-04-30T04:15:31.047Z,12.57
2023-04-30T04:17:57.734Z,14.18
2023-04-30T04:20:24.361Z,14.52
2023-04-30T04:22:53.211Z,13.95
2023-04-30T04:25:20.631Z,15.60
2023-04-30T04:27:47.197Z,11.10
2023-04-30T04:30:14.116Z,10.38
2023-04-30T04:32:48.237Z,13.73
2023-04-30T04:35:16.167Z,10.95
2023-04-30T04:37:42.753Z,10.73
2023-04-30T04:40:10.879Z,12.00
2023-04-30T04:42:38.506Z,13.10
2023-04-30T04:45:07.968Z,10.90
2023-04-30T04:47:34.695Z,11.02
2023-04-30T04:50:01.381Z,9.88
2023-04-30T04:52:28.053Z,11.32
2023-04-30T04:54:54.735Z,11.27
2023-04-30T04:57:21.402Z,11.95
2023-04-30T04:59:48.132Z,14.27
2023-04-30T05:02:17.457Z,12.38
2023-04-30T05:04:44.274Z,11.68
2023-04-30T05:07:10.896Z,11.80
2023-04-30T05:09:37.497Z,11.75
2023-04-30T05:12:04.388Z,14.25
2023-04-30T05:14:31.111Z,12.48
2023-04-30T05:16:57.755Z,12.52
2023-04-30T05:19:24.470Z,10.77
2023-04-30T05:21:51.451Z,12.60
2023-04-30T05:24:18.130Z,13.27
2023-04-30T05:26:44.743Z,13.10
2023-04-30T05:29:12.237Z,10.90
2023-04-30T05:31:39.014Z,13.73
2023-04-30T05:34:06.042Z,18.33
2023-04-30T05:36:32.706Z,15.63
2023-04-30T05:38:59.357Z,13.45
2023-04-30T05:41:26.351Z,15.63
2023-04-30T05:43:58.806Z,14.32
2023-04-30T05:46:25.554Z,11.93
2023-04-30T05:48:52.293Z,11.35
2023-04-30T05:51:18.957Z,11.68
2023-04-30T05:53:45.634Z,12.77
2023-04-30T05:56:12.729Z,12.38
2023-04-30T05:58:39.597Z,12.82
2023-04-30T06:01:06.585Z,16.60
2023-04-30T06:03:33.547Z,12.40
2023-04-30T06:06:00.271Z,10.75
2023-04-30T06:08:27.039Z,18.90
2023-04-30T06:10:53.693Z,15.00
2023-04-30T06:13:20.418Z,12.02
2023-04-30T06:15:47.077Z,16.23
2023-04-30T06:18:14.434Z,12.25
2023-04-30T06:20:41.245Z,12.23
2023-04-30T06:23:09.157Z,13.55
2023-04-30T06:25:36.131Z,13.15
2023-04-30T06:28:02.725Z,11.30
2023-04-30T06:30:31.564Z,14.43
2023-04-30T06:32:58.351Z,9.65
2023-04-30T06:35:25.023Z,11.88
2023-04-30T06:37:51.653Z,15.23
2023-04-30T06:40:18.311Z,10.52
2023-04-30T06:42:46.867Z,11.48
2023-04-30T06:45:15.380Z,13.93
2023-04-30T06:47:42.928Z,12.38
2023-04-30T06:50:09.965Z,10.80
2023-04-30T06:52:38.496Z,10.50
2023-04-30T06:55:05.862Z,10.80
2023-04-30T06:57:32.534Z,11.27
2023-04-30T07:00:01.220Z,11.13
2023-04-30T07:02:28.031Z,13.80
2023-04-30T07:04:54.919Z,13.40
2023-04-30T07:07:21.681Z,9.40
2023-04-30T07:09:49.667Z,13.15
2023-04-30T07:12:18.162Z,11.32
2023-04-30T07:14:44.906Z,10.77
2023-04-30T07:17:14.295Z,13.30
2023-04-30T07:19:41.143Z,11.20
2023-04-30T07:22:07.783Z,13.65
2023-04-30T07:24:34.406Z,12.68
2023-04-30T07:27:03.641Z,12.38
2023-04-30T07:29:30.739Z,10.25
2023-04-30T07:31:57.505Z,16.85
2023-04-30T07:34:27.494Z,10.80
2023-04-30T07:36:54.535Z,11.45
2023-04-30T07:39:21.174Z,11.20
2023-04-30T07:41:47.811Z,11.18
2023-04-30T07:44:14.487Z,14.02
2023-04-30T07:46:44.178Z,10.07
2023-04-30T07:49:10.865Z,10.40
2023-04-30T07:51:37.506Z,12.27
2023-04-30T07:54:04.965Z,11.73
2023-04-30T07:56:34.095Z,11.25
2023-04-30T07:59:00.762Z,11.50
2023-04-30T08:01:27.426Z,9.15
2023-04-30T08:03:54.230Z,15.45
2023-04-30T08:06:21.180Z,12.48
2023-04-30T08:08:48.838Z,9.77
2023-04-30T08:11:16.324Z,9.45
2023-04-30T08:13:43.069Z,9.05
2023-04-30T08:16:09.709Z,11.32
2023-04-30T08:18:38.801Z,10.05
2023-04-30T08:21:06.526Z,8.52
2023-04-30T08:23:33.189Z,11.90
2023-04-30T08:25:59.870Z,9.02
2023-04-30T08:28:26.822Z,9.13
2023-04-30T08:30:53.492Z,11.43
2023-04-30T08:33:20.192Z,9.85
2023-04-30T08:35:46.891Z,8.55
2023-04-30T08:38:13.801Z,11.57
2023-04-30T08:43:12.028Z,11.20
2023-04-30T08:45:38.952Z,9.30
2023-04-30T08:48:11.626Z,9.60
2023-04-30T08:50:38.343Z,10.68
2023-04-30T08:53:05.000Z,11.07
2023-04-30T08:55:34.354Z,11.18
2023-04-30T08:58:00.961Z,13.45
2023-04-30T09:00:27.931Z,8.95
2023-04-30T09:02:54.766Z,11.35
2023-04-30T09:05:21.404Z,12.07
2023-04-30T09:08:01.536Z,11.02
2023-04-30T09:10:32.817Z,11.07
2023-04-30T09:13:09.691Z,14.55
2023-04-30T09:15:45.980Z,8.27
2023-04-30T09:18:18.668Z,10.52
2023-04-30T09:21:03.104Z,7.97
2023-04-30T09:23:31.943Z,13.15
2023-04-30T09:25:58.548Z,9.88
2023-04-30T09:28:29.593Z,9.13
2023-04-30T09:30:57.749Z,10.07
2023-04-30T09:33:24.448Z,8.68
2023-04-30T09:35:54.100Z,11.85
2023-04-30T09:38:32.009Z,11.95
2023-04-30T09:41:02.346Z,10.50
2023-04-30T09:43:31.716Z,9.20
2023-04-30T09:45:59.938Z,8.25
2023-04-30T09:48:28.510Z,9.35
2023-04-30T09:50:55.549Z,8.77
2023-04-30T09:53:23.817Z,12.07
2023-04-30T09:55:58.406Z,13.60
2023-04-30T09:58:28.647Z,9.30
2023-04-30T10:00:57.211Z,9.73
2023-04-30T10:03:24.329Z,10.18
2023-04-30T10:05:53.222Z,7.15
2023-04-30T10:08:26.980Z,8.60
2023-04-30T10:11:03.839Z,10.20
2023-04-30T10:14:14.744Z,11.38
2023-04-30T10:16:49.359Z,9.32
2023-04-30T10:21:49.081Z,10.23
2023-04-30T10:24:20.074Z,7.95
2023-04-30T10:26:48.451Z,9.05
2023-04-30T10:29:17.708Z,8.40
2023-04-30T10:31:47.745Z,9.55
2023-04-30T10:34:17.973Z,11.20
2023-04-30T10:37:00.483Z,11.55
2023-04-30T10:39:28.941Z,7.82
2023-04-30T10:42:07.046Z,9.73
2023-04-30T10:44:36.512Z,9.23
2023-04-30T10:47:05.789Z,8.32
2023-04-30T10:49:33.004Z,9.80
2023-04-30T10:52:01.486Z,8.73
2023-04-30T10:54:31.082Z,12.32
2023-04-30T10:57:17.625Z,10.90
2023-04-30T10:59:52.683Z,12.05
2023-04-30T11:02:19.851Z,12.00
2023-04-30T11:05:08.245Z,8.50
2023-04-30T11:07:35.279Z,11.10
2023-04-30T11:10:02.665Z,8.27
2023-04-30T11:12:33.781Z,13.90
2023-04-30T11:15:13.286Z,9.65
2023-04-30T11:17:40.236Z,9.27
2023-04-30T11:20:12.404Z,11.45
2023-04-30T11:22:39.409Z,9.90
2023-04-30T11:25:09.671Z,9.90
2023-04-30T11:27:38.557Z,9.05
2023-04-30T11:30:19.335Z,10.57
2023-04-30T11:32:48.227Z,8.77
2023-04-30T11:35:19.064Z,16.27
2023-04-30T11:37:46.265Z,9.07
2023-04-30T11:40:14.256Z,11.15
2023-04-30T11:42:47.075Z,8.85
2023-04-30T11:45:18.156Z,8.25
2023-04-30T11:47:46.986Z,8.98
2023-04-30T11:50:15.587Z,13.80
2023-04-30T11:52:43.482Z,9.73
2023-04-30T11:55:16.915Z,9.18
2023-04-30T11:57:45.153Z,11.23
2023-04-30T12:00:12.975Z,9.68
2023-04-30T12:02:40.360Z,12.57
2023-04-30T12:05:18.447Z,10.80
2023-04-30T12:07:47.239Z,10.30
2023-04-30T12:10:13.962Z,13.93
2023-04-30T12:12:41.000Z,10.75
2023-04-30T12:15:23.425Z,15.57
2023-04-30T12:17:50.154Z,10.65
2023-04-30T12:20:17.108Z,10.68
2023-04-30T12:22:48.768Z,15.38
2023-04-30T12:25:19.888Z,14.48
2023-04-30T12:27:51.468Z,12.32
2023-04-30T12:30:29.371Z,12.43
2023-04-30T12:33:00.546Z,12.85
2023-04-30T12:35:29.755Z,9.50
2023-04-30T12:38:05.088Z,12.02
2023-04-30T12:40:32.347Z,10.48
2023-04-30T12:43:07.238Z,8.23
2023-04-30T12:45:46.655Z,8.15
2023-04-30T12:48:14.827Z,11.43
2023-04-30T12:50:41.991Z,10.23
2023-04-30T12:53:11.037Z,11.35
2023-04-30T12:55:39.413Z,11.30
2023-04-30T12:58:15.122Z,12.75
2023-04-30T13:00:53.009Z,11.88
2023-04-30T13:03:21.618Z,12.25
2023-04-30T13:05:54.833Z,8.85
2023-04-30T13:08:21.844Z,9.13
2023-04-30T13:10:48.778Z,12.60
2023-04-30T13:13:20.569Z,12.25
2023-04-30T13:15:48.267Z,11.05
2023-04-30T13:18:17.817Z,8.13
2023-04-30T13:20:44.745Z,14.95
2023-04-30T13:23:14.727Z,10.43
2023-04-30T13:25:45.640Z,10.23
2023-04-30T13:28:12.654Z,9.68
2023-04-30T13:30:42.070Z,8.65
2023-04-30T13:33:09.064Z,11.10
2023-04-30T13:35:38.182Z,13.23
2023-04-30T13:38:08.776Z,11.13
2023-04-30T13:40:35.387Z,10.02
2023-04-30T13:43:02.605Z,8.20
2023-04-30T13:45:29.548Z,10.15
2023-04-30T13:47:56.830Z,10.48
2023-04-30T13:50:23.621Z,9.52
2023-04-30T13:52:50.298Z,7.50
2023-04-30T13:55:16.932Z,13.18
2023-04-30T13:57:43.614Z,9.75
2023-04-30T14:00:10.932Z,7.38
2023-04-30T14:02:37.671Z,9.48
2023-04-30T14:05:06.791Z,8.00
2023-04-30T14:07:33.732Z,8.45
2023-04-30T14:10:00.589Z,7.80
2023-04-30T14:12:27.299Z,11.35
2023-04-30T14:14:55.897Z,8.93
2023-04-30T14:17:22.584Z,9.75
2023-04-30T14:19:52.382Z,8.50
2023-04-30T14:22:18.995Z,9.75
2023-04-30T14:24:45.733Z,10.30
2023-04-30T14:27:12.442Z,8.70
2023-04-30T14:29:39.204Z,8.23
2023-04-30T14:32:07.545Z,6.78
2023-04-30T14:34:34.259Z,11.30
2023-04-30T14:37:03.443Z,9.50
2023-04-30T14:39:30.136Z,7.70
2023-04-30T14:41:56.884Z,6.00
2023-04-30T14:44:25.608Z,8.25
2023-04-30T14:46:53.046Z,7.30
2023-04-30T14:49:22.357Z,7.20
2023-04-30T14:51:49.014Z,7.43
2023-04-30T14:54:17.578Z,12.30
2023-04-30T14:56:47.384Z,11.63
2023-04-30T14:59:14.721Z,6.15
2023-04-30T15:01:42.103Z,6.55
2023-04-30T15:04:09.628Z,8.48
2023-04-30T15:06:36.453Z,10.30
2023-04-30T15:09:03.904Z,6.90
2023-04-30T15:11:30.539Z,6.68
2023-04-30T15:13:57.152Z,8.73
2023-04-30T15:16:24.353Z,8.65
2023-04-30T15:18:51.143Z,15.18
2023-04-30T15:21:18.286Z,9.27
2023-04-30T15:23:45.943Z,8.10
2023-04-30T15:26:15.439Z,9.45
2023-04-30T15:28:43.604Z,8.13
2023-04-30T15:31:11.558Z,9.32
2023-04-30T15:33:42.444Z,8.85
2023-04-30T15:36:10.483Z,5.97
2023-04-30T15:38:37.203Z,8.68
2023-04-30T15:41:03.884Z,9.02
2023-04-30T15:43:32.393Z,5.68
2023-04-30T15:45:59.377Z,9.07
2023-04-30T15:48:26.112Z,6.70
2023-04-30T15:50:52.857Z,5.45
2023-04-30T15:53:19.484Z,5.85
2023-04-30T15:55:47.922Z,9.13
2023-04-30T15:58:17.247Z,6.57
2023-04-30T16:00:44.004Z,5.97
2023-04-30T16:03:10.850Z,7.10
2023-04-30T16:05:40.500Z,5.95
2023-04-30T16:08:10.560Z,8.63
2023-04-30T16:10:38.820Z,6.78
2023-04-30T16:13:07.532Z,7.55
2023-04-30T16:15:34.233Z,9.32
2023-04-30T16:18:00.997Z,6.75
2023-04-30T16:20:27.914Z,5.72
2023-04-30T16:22:55.609Z,7.38
2023-04-30T16:25:22.785Z,7.10
2023-04-30T16:27:49.861Z,7.55
2023-04-30T16:30:16.624Z,5.68
2023-04-30T16:32:43.442Z,8.90
2023-04-30T16:35:10.236Z,5.20
2023-04-30T16:37:36.932Z,7.65
2023-04-30T16:40:03.835Z,6.05
2023-04-30T16:42:30.912Z,8.40
2023-04-30T16:44:57.543Z,5.90
2023-04-30T16:47:24.253Z,8.43
2023-04-30T16:49:50.945Z,8.82
2023-04-30T16:52:17.666Z,5.20
2023-04-30T16:54:44.507Z,7.03
2023-04-30T16:57:11.095Z,5.85
2023-04-30T16:59:37.707Z,8.40
2023-04-30T17:02:04.915Z,8.35
2023-04-30T17:04:31.741Z,11.23
2023-04-30T17:06:59.292Z,12.18
2023-04-30T17:09:26.066Z,10.48
2023-04-30T17:11:52.661Z,9.57
2023-04-30T17:14:19.261Z,24.92
2023-04-30T17:16:49.233Z,12.93
2023-04-30T17:19:15.918Z,16.05
2023-04-30T17:21:42.545Z,27.45
2023-04-30T17:24:09.678Z,30.17
2023-04-30T17:26:36.391Z,11.27
2023-04-30T17:29:03.105Z,8.15
2023-04-30T17:31:33.192Z,7.70
2023-04-30T17:34:00.387Z,8.35
2023-04-30T17:36:28.903Z,6.57
2023-04-30T17:38:56.440Z,8.45
2023-04-30T17:41:23.844Z,7.13
2023-04-30T17:43:53.220Z,6.25
2023-04-30T17:46:19.943Z,7.00
2023-04-30T17:48:46.635Z,7.22
2023-04-30T17:51:13.343Z,8.60
2023-04-30T17:53:40.744Z,10.13
2023-04-30T17:56:08.777Z,8.82
2023-04-30T18:01:05.601Z,10.32
2023-04-30T18:03:32.579Z,8.63
2023-04-30T18:05:59.279Z,7.60
2023-04-30T18:08:26.897Z,8.10
2023-04-30T18:10:55.100Z,9.75
2023-04-30T18:13:21.714Z,9.07
2023-04-30T18:15:51.498Z,7.15
2023-04-30T18:18:18.635Z,7.57
2023-04-30T18:20:47.734Z,7.75
2023-04-30T18:23:15.059Z,11.50
2023-04-30T18:25:43.597Z,9.45
2023-04-30T18:28:10.397Z,7.70
2023-04-30T18:30:37.330Z,8.05
2023-04-30T18:33:04.985Z,7.80
2023-04-30T18:35:35.483Z,8.80
2023-04-30T18:38:02.259Z,8.15
2023-04-30T18:40:28.925Z,10.38
2023-04-30T18:42:56.889Z,9.38
2023-04-30T18:45:24.096Z,10.57
2023-04-30T18:47:51.078Z,8.90
2023-04-30T18:50:18.131Z,15.13
2023-04-30T18:52:45.243Z,14.77
2023-04-30T18:55:15.149Z,8.90
2023-04-30T18:57:42.785Z,9.43
2023-04-30T19:00:10.519Z,9.43
2023-04-30T19:02:43.376Z,9.63
2023-04-30T19:05:10.278Z,10.20
2023-04-30T19:07:36.872Z,7.90
2023-04-30T19:10:04.609Z,8.23
2023-04-30T19:12:31.273Z,8.35
2023-04-30T19:14:58.580Z,7.28
2023-04-30T19:17:25.748Z,8.85
2023-04-30T19:19:53.135Z,8.95
2023-04-30T19:22:19.927Z,11.20
2023-04-30T19:24:46.520Z,11.27
2023-04-30T19:27:13.120Z,10.63
2023-04-30T19:29:40.124Z,11.75
2023-04-30T19:32:07.024Z,12.68
2023-04-30T19:34:34.575Z,14.90
2023-04-30T19:37:01.372Z,10.90
2023-04-30T19:39:31.829Z,11.05
2023-04-30T19:41:59.008Z,13.43
2023-04-30T19:44:26.028Z,12.00
2023-04-30T19:46:52.743Z,12.00
2023-04-30T19:49:19.364Z,10.30
2023-04-30T19:51:46.180Z,15.82
2023-04-30T19:54:14.497Z,10.82
2023-04-30T19:56:44.825Z,11.13
2023-04-30T19:59:12.104Z,12.70
2023-04-30T20:01:39.196Z,12.20
2023-04-30T20:04:06.866Z,13.18
2023-04-30T20:06:33.774Z,18.60
2023-04-30T20:09:01.527Z,10.20
2023-04-30T20:11:28.117Z,21.15
2023-04-30T20:13:56.393Z,11.80
2023-04-30T20:16:23.313Z,13.68
2023-04-30T20:18:52.979Z,13.95
2023-04-30T20:21:20.745Z,13.35
2023-04-30T20:23:47.483Z,15.70
2023-04-30T20:26:14.104Z,10.93
2023-04-30T20:28:40.802Z,15.57
2023-04-30T20:31:09.735Z,13.75
2023-04-30T20:33:36.489Z,12.98
2023-04-30T20:36:03.304Z,11.45
2023-04-30T20:38:30.078Z,11.82
2023-04-30T20:40:59.750Z,17.48
2023-04-30T20:43:26.844Z,12.88
2023-04-30T20:45:57.177Z,13.65
2023-04-30T20:48:24.011Z,13.85
2023-04-30T20:50:50.712Z,15.98
2023-04-30T20:53:18.514Z,14.57
2023-04-30T20:55:45.091Z,15.93
2023-04-30T20:58:12.078Z,13.65
2023-04-30T21:00:38.716Z,12.68
2023-04-30T21:03:05.981Z,17.88
2023-04-30T21:05:32.937Z,12.73
2023-04-30T21:08:01.680Z,11.73
2023-04-30T21:10:36.094Z,11.18
2023-04-30T21:13:08.974Z,9.90
2023-04-30T21:15:36.385Z,13.25
2023-04-30T21:18:03.697Z,11.40
2023-04-30T21:20:32.182Z,11.70
2023-04-30T21:22:58.965Z,15.40
2023-04-30T21:25:25.659Z,13.35
2023-04-30T21:27:52.411Z,10.85
2023-04-30T21:30:19.239Z,12.93
2023-04-30T21:32:49.333Z,12.93
2023-04-30T21:35:16.177Z,14.20
2023-04-30T21:37:42.860Z,13.55
2023-04-30T21:40:09.950Z,14.18
2023-04-30T21:42:36.728Z,15.15
2023-04-30T21:45:03.561Z,11.10
2023-04-30T21:47:30.791Z,12.13
2023-04-30T21:49:58.832Z,14.50
2023-04-30T21:52:25.879Z,13.07
2023-04-30T21:54:52.554Z,19.00
2023-04-30T21:57:19.560Z,11.50
2023-04-30T21:59:46.255Z,12.18
2023-04-30T22:02:22.606Z,13.88
2023-04-30T22:04:49.837Z,11.30
2023-04-30T22:07:18.598Z,16.00
2023-04-30T22:09:45.409Z,14.93
2023-04-30T22:12:12.303Z,15.60
2023-04-30T22:14:39.258Z,12.10
2023-04-30T22:17:06.186Z,15.63
2023-04-30T22:19:32.856Z,14.93
2023-04-30T22:21:59.499Z,15.82
2023-04-30T22:24:26.102Z,17.33
2023-04-30T22:26:52.763Z,15.15
2023-04-30T22:29:19.827Z,14.15
2023-04-30T22:31:46.669Z,13.32
2023-04-30T22:34:15.588Z,14.10
2023-04-30T22:36:43.648Z,14.18
2023-04-30T22:39:11.902Z,13.20
2023-04-30T22:41:38.884Z,13.80
2023-04-30T22:44:05.616Z,12.05
2023-04-30T22:46:36.692Z,12.68
2023-04-30T22:49:03.756Z,13.80
2023-04-30T22:51:31.693Z,16.75
2023-04-30T22:53:58.395Z,13.93
2023-04-30T22:56:25.029Z,15.10
2023-04-30T22:58:51.715Z,15.52
2023-04-30T23:01:18.470Z,12.00
2023-04-30T23:03:45.186Z,15.10
2023-04-30T23:06:12.010Z,12.48
2023-04-30T23:08:38.666Z,12.77
2023-04-30T23:11:05.797Z,10.77
2023-04-30T23:13:32.713Z,14.15
2023-04-30T23:16:00.443Z,14.15
2023-04-30T23:18:27.722Z,14.77
2023-04-30T23:21:01.294Z,14.13
2023-04-30T23:23:28.161Z,17.45
2023-04-30T23:25:55.457Z,11.57
2023-04-30T23:28:24.608Z,18.63
2023-04-30T23:30:54.799Z,15.98
2023-04-30T23:33:21.808Z,14.98
2023-04-30T23:35:49.142Z,16.17
2023-04-30T23:38:16.344Z,16.73
2023-04-30T23:40:43.355Z,15.30
2023-04-30T23:43:10.616Z,16.65
2023-04-30T23:45:41.509Z,14.98
2023-04-30T23:48:09.253Z,17.40
2023-04-30T23:50:36.181Z,16.73
2023-04-30T23:53:02.784Z,14.65
2023-04-30T23:55:29.402Z,14.95
2023-04-30T23:57:55.966Z,15.38
